Saturday, December 16, 2017, 9:30 PM EST
Back to Local

KPTW, Pottstown Limerick Airport

Location: Royersford, PA, United States Lat: 40.233
Local Time: 9:30 PM EST ( 2:30 GMT) Lon: -75.55
Time Zone: US/Eastern Elev: 291 ft

Show me the last for .
Show Decoded

2017-12-16 20:54 METAR KPTW 170154Z AUTO 00000KT 9SM OVC047 02/M04 A3016 RMK AO2 SLP214 T00171039
                 =
2017-12-16 19:54 METAR KPTW 170054Z AUTO 00000KT 9SM OVC050 02/M04 A3015 RMK AO2 SLP210 T00221039
                 =
2017-12-16 18:54 METAR KPTW 162354Z AUTO 20003KT 9SM OVC050 03/M04 A3012 RMK AO2 SLP200 T00281044
                 10039 20017 51028 =
2017-12-16 17:54 METAR KPTW 162254Z AUTO 00000KT 9SM OVC055 03/M04 A3009 RMK AO2 SLP192 T00281044
                 =
2017-12-16 16:54 METAR KPTW 162154Z AUTO 00000KT 9SM OVC060 03/M05 A3006 RMK AO2 SLP179 T00331050
                 =
2017-12-16 15:54 METAR KPTW 162054Z AUTO 22006KT 8SM BKN055 04/M05 A3004 RMK AO2 SLP172 T00391050
                 53000 =
2017-12-16 14:54 METAR KPTW 161954Z AUTO 23006KT 8SM BKN055 03/M05 A3003 RMK AO2 SLP169 T00331050
                 =
2017-12-16 13:54 METAR KPTW 161854Z AUTO VRB06KT 8SM FEW032 OVC041 02/M06 A3003 RMK AO2 SLP169
                 T00221056 =
2017-12-16 12:54 METAR KPTW 161754Z AUTO 21009KT 8SM FEW035 OVC042 02/M06 A3003 RMK AO2 SLP172
                 T00221056 10028 21072 58021 =
2017-12-16 11:54 METAR KPTW 161654Z AUTO 24008KT 8SM FEW043 OVC070 02/M06 A3005 RMK AO2 SLP178
                 T00171061 =
2017-12-16 10:54 METAR KPTW 161554Z AUTO 24006KT 8SM BKN049 OVC060 00/M07 A3008 RMK AO2 SLP189
                 T00001067 =
2017-12-16 09:54 METAR KPTW 161454Z AUTO 21005KT 8SM BKN044 OVC055 M02/M07 A3010 RMK AO2 SLP193
                 T10171067 51011 =
2017-12-16 08:54 METAR KPTW 161354Z AUTO 00000KT 6SM HZ SCT049 OVC060 M04/M08 A3010 RMK AO2
                 SLP194 T10391078 =
2017-12-16 07:54 METAR KPTW 161254Z AUTO 00000KT 5SM BR FEW047 M07/M09 A3008 RMK AO2 SLP188
                 T10671089 =
2017-12-16 06:54 METAR KPTW 161154Z AUTO 20003KT 7SM BKN065 M07/M09 A3006 RMK AO2 SLP183 70008
                 I6000 T10671089 11050 21122 53013 =
2017-12-16 05:54 METAR KPTW 161054Z AUTO 17003KT 7SM FEW047 M08/M10 A3004 RMK AO2 SLP174
                 T10781100 =
2017-12-16 04:54 METAR KPTW 160954Z AUTO 21004KT 7SM CLR M05/M08 A3002 RMK AO2 SLP167 T10501083 =
2017-12-16 03:54 METAR KPTW 160854Z AUTO 00000KT 7SM OVC055 M06/M08 A3003 RMK AO2 SLP170 I3000
                 T10611078 53017 =
2017-12-16 02:54 METAR KPTW 160754Z AUTO 00000KT 5SM BR OVC060 M09/M10 A3001 RMK AO2 SLP163
                 T10891100 =
2017-12-16 01:54 METAR KPTW 160654Z AUTO 00000KT 3SM BR CLR M11/M12 A2999 RMK AO2 SLP158 I1000
                 T11111117 =
2017-12-16 01:26 METAR KPTW 160626Z AUTO 00000KT 3SM BR FEW060 M11/M12 A2998 RMK AO2 I1000
                 T11061117 =
2017-12-16 01:16 METAR KPTW 160616Z AUTO 00000KT 2 1/2SM BR FEW060 M09/M11 A2998 RMK AO2
                 T10941106 =
2017-12-16 00:54 METAR KPTW 160554Z AUTO 00000KT 3SM BR CLR M09/M11 A2998 RMK AO2 SLP153 I6001
                 T10941111 11067 21111 53006 =
2017-12-16 00:30 METAR KPTW 160530Z AUTO 00000KT 3SM BR CLR M11/M12 A2997 RMK AO2 T11111122 =
2017-12-15 23:54 METAR KPTW 160454Z AUTO 00000KT 2 1/2SM BR CLR M11/M11 A2997 RMK AO2 SLP149
                 I1001 T11061111 410441111 =
2017-12-15 23:50 METAR KPTW 160450Z AUTO 00000KT 2 1/2SM BR CLR M10/M11 A2996 RMK AO2 I1000 =
2017-12-15 22:54 METAR KPTW 160354Z AUTO 23003KT 4SM BR CLR M10/M12 A2996 RMK AO2 SLP146 I1000
                 T11001117 =
2017-12-15 21:54 METAR KPTW 160254Z AUTO 00000KT 4SM BR BKN065 M07/M08 A2996 RMK AO2 SLP147 I1000
                 I3000 T10721078 51008 =

Support USWX by starting your Amazon purchase here.